Flight Track Log - Related Links

Times and Time Zones

All times are in EDT time to prevent confusion due to time zone crossing. See the ASQ6041 flight status page for this flight to view local times or setup timezone preferences in your user account.

Time Position Orientation Groundspeed Altitude Reporting Facility
EDT Latitude Longitude Course Direction KTS MPH feet Rate Location/Type
Mon 01:35:05 PM 39.8333 -104.7667 237° Southwest 201 231 7,000  Level Denver TRACON
Mon 01:35:59 PM 39.8167 -104.8500 255° West 253 291 8,000 1,795 Climbing Denver TRACON
Mon 01:37:12 PM 39.7875 -104.9506 249° West 270 311 10,800 2,444 Climbing Denver Center
Mon 01:38:00 PM 39.7288 -105.0637 247° West  Level FlightAware Approximate
Mon 01:38:14 PM 39.7633 -105.0472 252° West 262 302 13,500  Level Denver Center
Mon 01:39:00 PM 39.6962 -105.1616 247° West  Level FlightAware Approximate
Mon 01:39:16 PM 39.7656 -105.1389 272° West 253 291 15,700  Level Denver Center
Mon 01:40:00 PM 39.6562 -105.2543 237° Southwest  Level FlightAware Approximate
Mon 01:40:19 PM 39.7642 -105.2386 269° West 258 297 17,600  Level Denver Center
Mon 01:41:21 PM 39.7639 -105.3408 270° West 284 327 18,200 726 Climbing Denver Center
Mon 01:42:23 PM 39.6928 -105.4325 225° Southwest 333 383 19,100 1,258 Climbing Denver Center
Mon 01:43:25 PM 39.6261 -105.5183 225° Southwest 338 389 20,800 1,839 Climbing Denver Center
Mon 01:44:27 PM 39.5589 -105.6106 227° Southwest 328 377 22,900 1,935 Climbing Denver Center
Mon 01:45:29 PM 39.5303 -105.7053 249° West 297 342 24,800 1,452 Climbing Denver Center
Mon 01:46:31 PM 39.4983 -105.8081 248° West 303 349 25,900 581 Climbing Denver Center
Mon 01:47:33 PM 39.4703 -105.9197 252° West 324 373 26,000 48 Climbing Denver Center
Mon 01:48:35 PM 39.4281 -106.0711 250° West 374 430 26,000  Level Denver Center
Mon 01:49:37 PM 39.3842 -106.1892 244° Southwest 395 455 26,000  Level Denver Center
Mon 01:50:39 PM 39.2792 -106.2908 217° Southwest 418 481 26,000  Level Denver Center
Mon 01:51:41 PM 39.1875 -106.3758 216° Southwest 423 487 26,000 -97 Level Denver Center
Mon 01:52:43 PM 39.0767 -106.4758 215° Southwest 432 497 25,800 -532 Descending Denver Center
Mon 01:53:45 PM 38.9828 -106.5625 216° Southwest 432 497 24,900 -1,210 Descending Denver Center
Mon 01:54:47 PM 38.8819 -106.6531 215° Southwest 416 479 23,300 -2,274 Descending Denver Center
Mon 01:55:49 PM 38.7939 -106.7328 215° Southwest 396 456 20,200 -2,710 Descending Denver Center
Mon 01:56:51 PM 38.7144 -106.8039 215° Southwest 361 415 17,700 -2,448 Descending Denver Center
Mon 01:57:54 PM 38.6400 -106.8714 215° Southwest 337 388 15,100 -1,632 Descending Denver Center
Mon 01:58:56 PM 38.5467 -106.8975 192° South 324 373 14,300 -774 Descending Denver Center

Login

Don't have an account? Register now (free) for customized features, flight alerts, and more!